Time;durP1;ratioP1;P1;durP2;ratioP2;P2;SDS_P1;SDS_P2;PMS_P1;PMS_P2;Temp;Humidity;BMP_temperature;BMP_pressure;BME280_temperature;BME280_humidity;BME280_pressure;Samples;Min_cycle;Max_cycle;Signal;HPM_P1;HPM_P2
2022/12/01 00:02:06;;;;;;;54.03;24.47;;;6.00;99.90;;;;;;4991852;28;20380;-58
2022/12/01 00:04:32;;;;;;;51.57;23.87;;;6.00;99.90;;;;;;4991768;28;20065;-58
2022/12/01 00:06:57;;;;;;;55.53;25.70;;;5.90;99.90;;;;;;4991626;28;20037;-58
2022/12/01 00:12:07;;;;;;;61.90;27.37;;;5.90;99.90;;;;;;5011168;28;20026;-52
2022/12/01 00:14:33;;;;;;;68.50;29.03;;;5.90;99.90;;;;;;5011266;28;20032;-53
2022/12/01 00:16:59;;;;;;;67.50;28.27;;;5.90;99.90;;;;;;5010891;28;20034;-52
2022/12/01 00:19:26;;;;;;;68.23;27.97;;;5.90;99.90;;;;;;5010825;28;20065;-51
2022/12/01 00:21:51;;;;;;;69.80;28.30;;;5.90;99.90;;;;;;5011142;28;20571;-53
2022/12/01 00:24:17;;;;;;;70.87;30.63;;;5.90;99.90;;;;;;5010918;28;20286;-49
2022/12/01 00:26:43;;;;;;;82.20;31.70;;;5.90;99.90;;;;;;5010926;28;20308;-52
2022/12/01 00:29:10;;;;;;;79.43;29.97;;;5.80;99.90;;;;;;5009523;28;20076;-50
2022/12/01 00:31:36;;;;;;;85.83;33.10;;;5.80;99.90;;;;;;5010873;28;20507;-50
2022/12/01 00:34:02;;;;;;;81.67;32.37;;;5.80;99.90;;;;;;5010774;28;20125;-50
2022/12/01 00:36:27;;;;;;;83.63;32.77;;;5.80;99.90;;;;;;5010551;28;20037;-51
2022/12/01 00:38:55;;;;;;;85.67;31.97;;;5.80;99.90;;;;;;5010815;28;20033;-49
2022/12/01 00:41:22;;;;;;;91.10;31.93;;;5.80;99.90;;;;;;5010760;28;20040;-51
2022/12/01 00:43:48;;;;;;;91.40;31.83;;;5.80;99.90;;;;;;5010842;28;20467;-48
2022/12/01 00:46:14;;;;;;;94.07;32.30;;;5.80;99.90;;;;;;5010694;28;20113;-51
2022/12/01 00:48:40;;;;;;;97.47;33.63;;;5.80;99.90;;;;;;5010429;28;20049;-49
2022/12/01 00:51:06;;;;;;;96.80;35.10;;;5.80;99.90;;;;;;5010948;28;20042;-49
2022/12/01 00:53:31;;;;;;;100.97;35.80;;;5.70;99.90;;;;;;5010841;28;20030;-49
2022/12/01 00:55:57;;;;;;;103.73;34.60;;;5.70;99.90;;;;;;5010825;28;20030;-50
2022/12/01 00:58:24;;;;;;;110.27;36.27;;;5.70;99.90;;;;;;5010455;28;20407;-52
2022/12/01 01:00:57;;;;;;;110.43;36.70;;;5.70;99.90;;;;;;5010304;28;20084;-51
2022/12/01 01:03:24;;;;;;;113.10;35.33;;;5.70;99.90;;;;;;5010912;28;20440;-52
2022/12/01 01:05:49;;;;;;;112.53;37.07;;;5.70;99.90;;;;;;5010971;28;20289;-54
2022/12/01 01:08:15;;;;;;;116.23;37.87;;;5.70;99.90;;;;;;5010476;28;20111;-49
2022/12/01 01:10:43;;;;;;;109.10;34.23;;;5.60;99.90;;;;;;5010229;28;20033;-49
2022/12/01 01:13:10;;;;;;;117.40;36.87;;;5.60;99.90;;;;;;5010612;28;20034;-50
2022/12/01 01:15:37;;;;;;;104.30;33.87;;;5.60;99.90;;;;;;5010372;28;20086;-54
2022/12/01 01:18:04;;;;;;;117.90;37.53;;;5.60;99.90;;;;;;5010388;28;20029;-53
2022/12/01 01:20:30;;;;;;;110.33;34.97;;;5.70;99.90;;;;;;5010179;28;20045;-50
2022/12/01 01:22:56;;;;;;;114.03;35.10;;;5.70;99.90;;;;;;5010897;28;20026;-52
2022/12/01 01:25:22;;;;;;;118.67;38.83;;;5.70;99.90;;;;;;5009067;28;20044;-51
2022/12/01 01:27:47;;;;;;;118.27;37.23;;;5.60;99.90;;;;;;5010840;28;20041;-48
2022/12/01 01:30:14;;;;;;;127.27;38.37;;;5.60;99.90;;;;;;5010057;28;20042;-51
2022/12/01 01:32:39;;;;;;;120.30;36.53;;;5.60;99.90;;;;;;5010607;28;20033;-49
2022/12/01 01:35:05;;;;;;;128.67;39.80;;;5.60;99.90;;;;;;5010393;28;20033;-50
2022/12/01 01:37:31;;;;;;;134.20;39.73;;;5.60;99.90;;;;;;5010036;28;20034;-49
2022/12/01 01:39:57;;;;;;;138.50;40.37;;;5.60;99.90;;;;;;5009924;28;20041;-52
2022/12/01 01:42:22;;;;;;;124.73;38.53;;;5.60;99.90;;;;;;5010311;28;20108;-49
2022/12/01 01:44:57;;;;;;;130.57;39.57;;;5.60;99.90;;;;;;5010221;28;20141;-51
2022/12/01 01:47:33;;;;;;;126.67;38.03;;;5.60;99.90;;;;;;5013026;28;20034;-49
2022/12/01 01:50:05;;;;;;;130.90;38.80;;;5.60;99.90;;;;;;5013589;28;20091;-48
2022/12/01 01:52:34;;;;;;;140.43;38.87;;;5.60;99.90;;;;;;5013900;28;20501;-51
2022/12/01 01:55:00;;;;;;;;;;;5.50;99.90;;;;;;5014092;28;20041;-51
2022/12/01 01:57:29;;;;;;;138.00;40.13;;;5.50;99.90;;;;;;5013587;28;19909;-52
2022/12/01 02:00:21;;;;;;;126.72;36.47;;;5.60;99.90;;;;;;5013357;28;20040;-49
2022/12/01 02:02:49;;;;;;;123.13;38.00;;;5.60;99.90;;;;;;5013343;28;20038;-50
2022/12/01 02:05:22;;;;;;;125.57;37.27;;;5.60;99.90;;;;;;5013527;28;20527;-50
2022/12/01 02:07:50;;;;;;;132.17;38.90;;;5.60;99.90;;;;;;5013398;28;20038;-51
2022/12/01 02:10:21;;;;;;;121.20;38.67;;;5.60;99.90;;;;;;5013188;28;20034;-51
2022/12/01 02:13:00;;;;;;;129.47;36.13;;;5.60;99.90;;;;;;5013397;28;20034;-51
2022/12/01 02:15:31;;;;;;;127.75;36.70;;;5.60;99.90;;;;;;5013417;28;20037;-52
2022/12/01 02:18:12;;;;;;;120.40;37.40;;;5.60;99.90;;;;;;5013047;28;20030;-49
2022/12/01 02:20:56;;;;;;;117.40;36.57;;;5.60;99.90;;;;;;5012954;28;20026;-51
2022/12/01 02:23:53;;;;;;;129.47;37.33;;;5.60;99.90;;;;;;5013251;28;20562;-50
2022/12/01 02:26:38;;;;;;;119.93;36.10;;;5.60;99.90;;;;;;5012846;28;20032;-51
2022/12/01 02:29:09;;;;;;;127.60;37.17;;;5.60;99.90;;;;;;5013058;28;20030;-52
2022/12/01 02:31:41;;;;;;;115.33;36.47;;;5.60;99.90;;;;;;5013174;28;20029;-49
2022/12/01 02:34:22;;;;;;;140.23;38.83;;;5.60;99.90;;;;;;5013462;28;20038;-52
2022/12/01 02:36:51;;;;;;;123.70;37.37;;;5.60;99.90;;;;;;5012776;28;20041;-50
2022/12/01 02:39:40;;;;;;;125.47;38.20;;;5.60;99.90;;;;;;5012860;28;20030;-49
2022/12/01 02:42:48;;;;;;;119.55;35.45;;;5.60;99.90;;;;;;5012863;28;20517;-52
2022/12/01 02:45:06;;;;;;;113.93;34.97;;;5.60;99.90;;;;;;5012600;28;20371;-49
2022/12/01 02:47:33;;;;;;;120.00;36.00;;;5.60;99.90;;;;;;5012984;28;20088;-49
2022/12/01 02:50:01;;;;;;;123.20;36.00;;;5.60;99.90;;;;;;5012349;28;20108;-50
2022/12/01 02:52:28;;;;;;;136.27;39.53;;;5.60;99.90;;;;;;5012671;28;20494;-50
2022/12/01 02:54:55;;;;;;;119.87;37.00;;;5.60;99.90;;;;;;5012792;28;20061;-49
2022/12/01 02:57:21;;;;;;;119.77;36.83;;;5.70;99.90;;;;;;5011779;28;20044;-49
2022/12/01 02:59:51;;;;;;;118.60;38.27;;;5.70;99.90;;;;;;5010915;28;20414;-52
2022/12/01 03:02:30;;;;;;;125.43;39.72;;;5.60;99.90;;;;;;5012509;28;20121;-49
2022/12/01 03:04:56;;;;;;;127.63;37.73;;;5.70;99.90;;;;;;5012456;28;20069;-48
2022/12/01 03:07:39;;;;;;;122.20;37.40;;;5.70;99.90;;;;;;5012307;28;20475;-49
2022/12/01 03:10:36;;;;;;;108.63;35.47;;;5.70;99.90;;;;;;5011983;28;20034;-49
2022/12/01 03:13:23;;;;;;;123.40;36.33;;;5.60;99.90;;;;;;5012622;28;20080;-49
2022/12/01 03:15:56;;;;;;;109.70;36.17;;;5.70;99.90;;;;;;5012294;28;20030;-49
2022/12/01 03:18:40;;;;;;;112.43;34.20;;;5.70;99.90;;;;;;5011772;28;20061;-50
2022/12/01 03:21:12;;;;;;;103.33;33.90;;;5.70;99.90;;;;;;5012159;28;20525;-53
2022/12/01 03:23:42;;;;;;;99.90;34.17;;;5.70;99.90;;;;;;5011977;28;20044;-53
2022/12/01 03:26:11;;;;;;;91.73;33.40;;;5.70;99.90;;;;;;5011953;28;20030;-55
2022/12/01 03:28:41;;;;;;;;;;;5.70;99.90;;;;;;5012244;28;20065;-54
2022/12/01 03:31:10;;;;;;;;;;;5.70;99.90;;;;;;5012411;28;19913;-53
2022/12/01 03:33:43;;;;;;;78.13;26.42;;;5.70;99.90;;;;;;5011995;28;19920;-54
2022/12/01 03:36:16;;;;;;;71.33;26.63;;;5.70;99.90;;;;;;5011919;28;20061;-53
2022/12/01 03:38:47;;;;;;;73.57;26.40;;;5.70;99.90;;;;;;5011513;28;20117;-53
2022/12/01 03:41:17;;;;;;;74.63;27.73;;;5.70;99.90;;;;;;5011687;28;20037;-51
2022/12/01 03:43:49;;;;;;;72.07;27.90;;;5.70;99.90;;;;;;5011616;28;20036;-52
2022/12/01 03:46:22;;;;;;;73.87;27.93;;;5.70;99.90;;;;;;5011689;28;20470;-50
2022/12/01 03:48:51;;;;;;;74.80;26.60;;;5.70;99.90;;;;;;5011453;28;20045;-50
2022/12/01 03:51:30;;;;;;;69.88;26.48;;;5.60;99.90;;;;;;5011679;28;20061;-50
2022/12/01 03:54:09;;;;;;;78.45;30.55;;;5.70;99.90;;;;;;5011530;28;20447;-49
2022/12/01 03:56:48;;;;;;;78.00;27.27;;;5.60;99.90;;;;;;5011723;28;20403;-49
2022/12/01 03:59:17;;;;;;;72.27;27.63;;;5.70;99.90;;;;;;5011353;28;20046;-50
2022/12/01 04:01:44;;;;;;;71.60;27.45;;;5.70;99.90;;;;;;5011431;28;20430;-49
2022/12/01 04:04:12;;;;;;;72.03;26.80;;;5.70;99.90;;;;;;5010163;28;20697;-51
2022/12/01 04:06:41;;;;;;;58.93;23.83;;;5.70;99.90;;;;;;5011312;28;20030;-52
2022/12/01 04:09:07;;;;;;;63.47;26.05;;;5.70;99.90;;;;;;5010642;28;20441;-52
2022/12/01 04:14:17;;;;;;;61.73;26.43;;;5.70;99.90;;;;;;5011299;28;20038;-50
2022/12/01 04:16:42;;;;;;;65.27;26.70;;;5.70;99.90;;;;;;5011025;28;20022;-49
2022/12/01 04:19:09;;;;;;;66.93;27.33;;;5.70;99.90;;;;;;5011164;28;20105;-49
2022/12/01 04:21:35;;;;;;;72.73;29.63;;;5.70;99.90;;;;;;5011094;28;20319;-54
2022/12/01 04:24:00;;;;;;;73.03;30.07;;;5.70;99.90;;;;;;5011273;28;20041;-49
2022/12/01 04:26:28;;;;;;;72.70;29.67;;;5.70;99.90;;;;;;5010845;28;20033;-49
2022/12/01 04:28:54;;;;;;;74.57;29.63;;;5.60;99.90;;;;;;5010694;28;20030;-49
2022/12/01 04:31:20;;;;;;;73.67;28.77;;;5.70;99.90;;;;;;5010854;28;20165;-50
2022/12/01 04:33:45;;;;;;;71.80;29.80;;;5.70;99.90;;;;;;5011148;28;20037;-50
2022/12/01 04:36:11;;;;;;;72.10;28.83;;;5.70;99.90;;;;;;5011104;28;20114;-52
2022/12/01 04:38:37;;;;;;;76.43;27.50;;;5.70;99.90;;;;;;5010490;28;20052;-53
2022/12/01 04:41:13;;;;;;;85.00;29.07;;;5.70;99.90;;;;;;5010789;28;20034;-53
2022/12/01 04:43:39;;;;;;;86.57;29.70;;;5.70;99.90;;;;;;5010672;28;20434;-52
2022/12/01 04:46:06;;;;;;;87.00;30.60;;;5.70;99.90;;;;;;5010765;28;20053;-49
2022/12/01 04:48:36;;;;;;;85.30;28.90;;;5.70;99.90;;;;;;5010490;28;20030;-49
2022/12/01 04:51:03;;;;;;;91.30;31.73;;;5.70;99.90;;;;;;5010743;28;20029;-50
2022/12/01 04:53:29;;;;;;;89.77;31.50;;;5.70;99.90;;;;;;5010631;28;20032;-53
2022/12/01 04:55:55;;;;;;;98.60;32.47;;;5.70;99.90;;;;;;5010652;28;20026;-53
2022/12/01 04:58:20;;;;;;;97.03;33.30;;;5.70;99.90;;;;;;5010457;28;20029;-51
2022/12/01 05:00:46;;;;;;;104.83;34.97;;;5.70;99.90;;;;;;5010486;28;20475;-52
2022/12/01 05:03:12;;;;;;;98.13;32.77;;;5.70;99.90;;;;;;5010905;28;20040;-53
2022/12/01 05:05:38;;;;;;;98.53;31.23;;;5.60;99.90;;;;;;5010856;28;20065;-52
2022/12/01 05:08:03;;;;;;;98.60;31.90;;;5.60;99.90;;;;;;5010584;28;20025;-48
2022/12/01 05:10:29;;;;;;;88.07;31.77;;;5.60;99.90;;;;;;5010088;28;20519;-53
2022/12/01 05:12:57;;;;;;;91.23;30.30;;;5.60;99.90;;;;;;5010482;28;20498;-49
2022/12/01 05:15:23;;;;;;;83.37;27.23;;;5.60;99.90;;;;;;5010609;28;20030;-50
2022/12/01 05:17:48;;;;;;;90.43;30.93;;;5.60;99.90;;;;;;5010413;28;20113;-50
2022/12/01 05:23:06;;;;;;;87.60;30.83;;;5.60;99.90;;;;;;5014462;28;20061;-50
2022/12/01 05:25:32;;;;;;;87.00;30.53;;;5.60;99.90;;;;;;5014123;28;20034;-49
2022/12/01 05:27:58;;;;;;;83.17;29.93;;;5.60;99.90;;;;;;5014011;28;20411;-49
2022/12/01 05:30:24;;;;;;;87.77;26.93;;;5.60;99.90;;;;;;5013920;28;20026;-52
2022/12/01 05:32:49;;;;;;;86.93;27.47;;;5.70;99.90;;;;;;5014188;28;20030;-51
2022/12/01 05:35:15;;;;;;;89.67;30.00;;;5.70;99.90;;;;;;5014164;28;20475;-53
2022/12/01 05:37:41;;;;;;;92.33;30.87;;;5.60;99.90;;;;;;5013889;28;20026;-51
2022/12/01 05:40:07;;;;;;;89.27;29.73;;;5.60;99.90;;;;;;5013666;28;20505;-49
2022/12/01 05:42:33;;;;;;;87.50;29.33;;;5.60;99.90;;;;;;5014207;28;20158;-50
2022/12/01 05:44:58;;;;;;;82.33;28.60;;;5.60;99.90;;;;;;5013902;28;20026;-53
2022/12/01 05:47:24;;;;;;;82.23;29.07;;;5.60;99.90;;;;;;5013761;28;20414;-50
2022/12/01 05:49:50;;;;;;;77.73;28.10;;;5.70;99.90;;;;;;5013619;28;20030;-49
2022/12/01 05:52:16;;;;;;;74.83;26.03;;;5.70;99.90;;;;;;5013753;28;20076;-50
2022/12/01 05:54:42;;;;;;;82.63;26.80;;;5.70;99.90;;;;;;5014188;28;20034;-52
2022/12/01 05:57:07;;;;;;;81.47;27.93;;;5.60;99.90;;;;;;5013517;28;20053;-50
2022/12/01 05:59:33;;;;;;;67.90;25.03;;;5.60;99.90;;;;;;5013421;28;20037;-50
2022/12/01 06:01:59;;;;;;;73.03;25.47;;;5.60;99.90;;;;;;5013712;28;20021;-51
2022/12/01 06:04:24;;;;;;;74.13;24.43;;;5.60;99.90;;;;;;5013554;28;20463;-51
2022/12/01 06:06:50;;;;;;;69.27;23.63;;;5.60;99.90;;;;;;5013408;28;20041;-49
2022/12/01 06:09:16;;;;;;;70.37;24.57;;;5.60;99.90;;;;;;5026252;23;20042;-52
2022/12/01 06:11:42;;;;;;;69.00;23.57;;;5.50;99.90;;;;;;5013444;28;20465;-52
2022/12/01 06:14:07;;;;;;;71.20;23.87;;;5.50;99.90;;;;;;5013474;28;20040;-53
2022/12/01 06:16:34;;;;;;;68.03;22.47;;;5.50;99.90;;;;;;5013218;28;20038;-50
2022/12/01 06:18:59;;;;;;;63.73;22.40;;;5.60;99.90;;;;;;5013012;28;20045;-50
2022/12/01 06:21:25;;;;;;;63.67;22.43;;;5.60;99.90;;;;;;5013235;28;20034;-48
2022/12/01 06:23:51;;;;;;;58.60;21.23;;;5.50;99.90;;;;;;5013121;28;20033;-50
2022/12/01 06:26:16;;;;;;;61.57;22.40;;;5.60;99.90;;;;;;5013379;28;20029;-52
2022/12/01 06:28:42;;;;;;;62.67;22.33;;;5.60;99.90;;;;;;5012839;28;20037;-51
2022/12/01 06:31:08;;;;;;;61.47;22.73;;;5.50;99.90;;;;;;5013195;28;20026;-49
2022/12/01 06:33:34;;;;;;;63.57;22.93;;;5.60;99.90;;;;;;5011850;28;20022;-52
2022/12/01 06:36:02;;;;;;;68.97;24.37;;;5.60;99.90;;;;;;5013234;28;20591;-53
2022/12/01 06:38:36;;;;;;;67.80;23.70;;;5.60;99.90;;;;;;5012652;28;20030;-51
2022/12/01 06:41:02;;;;;;;73.07;24.53;;;5.60;99.90;;;;;;5012844;28;20037;-53
2022/12/01 06:43:29;;;;;;;62.57;23.90;;;5.60;99.90;;;;;;5012818;28;20036;-52
2022/12/01 06:45:54;;;;;;;74.23;24.47;;;5.60;99.90;;;;;;5012898;28;20026;-47
2022/12/01 06:48:20;;;;;;;73.67;23.80;;;5.60;99.90;;;;;;5012663;28;20034;-49
2022/12/01 06:50:46;;;;;;;76.37;25.60;;;5.60;99.90;;;;;;5012288;28;20494;-50
2022/12/01 06:53:11;;;;;;;72.13;24.30;;;5.60;99.90;;;;;;5012677;28;20045;-52
2022/12/01 06:55:38;;;;;;;76.37;25.47;;;5.60;99.90;;;;;;5012602;28;20022;-50
2022/12/01 06:58:04;;;;;;;72.70;24.17;;;5.60;99.90;;;;;;5012592;28;20080;-51
2022/12/01 07:00:30;;;;;;;73.67;25.37;;;5.60;99.90;;;;;;5012307;28;20479;-53
2022/12/01 07:02:57;;;;;;;85.73;25.37;;;5.60;99.90;;;;;;5012400;28;20100;-53
2022/12/01 07:05:23;;;;;;;80.40;25.73;;;5.60;99.90;;;;;;5012330;28;20033;-48
2022/12/01 07:07:48;;;;;;;80.63;25.37;;;5.60;99.90;;;;;;5012270;28;20056;-50
2022/12/01 07:10:15;;;;;;;86.27;27.20;;;5.60;99.90;;;;;;5011984;28;20040;-51
2022/12/01 07:12:40;;;;;;;87.77;28.30;;;5.60;99.90;;;;;;5012286;28;20450;-48
2022/12/01 07:15:07;;;;;;;87.20;28.47;;;5.60;99.90;;;;;;5012432;28;20037;-51
2022/12/01 07:17:34;;;;;;;95.10;29.20;;;5.60;99.90;;;;;;5012266;28;20038;-51
2022/12/01 07:20:00;;;;;;;91.27;29.70;;;5.60;99.90;;;;;;5011704;28;20032;-49
2022/12/01 07:22:27;;;;;;;92.70;30.57;;;5.60;99.90;;;;;;5012130;28;20034;-49
2022/12/01 07:24:52;;;;;;;89.40;31.60;;;5.60;99.90;;;;;;5012245;28;20091;-50
2022/12/01 07:27:18;;;;;;;98.80;33.00;;;5.60;99.90;;;;;;5011940;28;20475;-49
2022/12/01 07:29:44;;;;;;;96.63;32.93;;;5.60;99.90;;;;;;5011857;28;20034;-50
2022/12/01 07:32:10;;;;;;;95.03;31.27;;;5.60;99.90;;;;;;5011973;28;20501;-52
2022/12/01 07:34:35;;;;;;;101.53;31.97;;;5.50;99.90;;;;;;5011774;28;20116;-50
2022/12/01 07:37:01;;;;;;;91.17;33.57;;;5.60;99.90;;;;;;5011572;28;20045;-50
2022/12/01 07:39:27;;;;;;;94.70;32.23;;;5.60;99.90;;;;;;5011488;28;20030;-53
2022/12/01 07:41:53;;;;;;;94.63;33.03;;;5.60;99.90;;;;;;5011889;28;20022;-48
2022/12/01 07:44:18;;;;;;;94.30;32.13;;;5.60;99.90;;;;;;5011512;28;20034;-50
2022/12/01 07:46:44;;;;;;;93.83;32.10;;;5.60;99.90;;;;;;5011648;28;20440;-49
2022/12/01 07:49:13;;;;;;;94.70;31.67;;;5.60;99.90;;;;;;5011862;28;20022;-49
2022/12/01 07:51:39;;;;;;;87.47;31.70;;;5.60;99.90;;;;;;5011572;28;20467;-54
2022/12/01 07:54:05;;;;;;;94.50;32.80;;;5.60;99.90;;;;;;5011624;28;20130;-51
2022/12/01 07:56:32;;;;;;;90.43;32.00;;;5.60;99.90;;;;;;5011331;28;20034;-50
2022/12/01 07:58:58;;;;;;;89.87;34.10;;;5.60;99.90;;;;;;5011345;28;20562;-51
2022/12/01 08:01:24;;;;;;;85.00;32.23;;;5.60;99.90;;;;;;5011456;28;20065;-51
2022/12/01 08:03:52;;;;;;;87.00;31.03;;;5.60;99.90;;;;;;5011186;28;20375;-48
2022/12/01 08:06:19;;;;;;;91.63;34.27;;;5.70;99.90;;;;;;5011282;28;20036;-50
2022/12/01 08:08:45;;;;;;;98.93;34.17;;;5.70;99.90;;;;;;5011035;28;20109;-48
2022/12/01 08:11:17;;;;;;;100.60;35.70;;;5.70;99.90;;;;;;5011202;28;20033;-49
2022/12/01 08:13:43;;;;;;;101.23;34.97;;;5.70;99.90;;;;;;5011356;28;20034;-51
2022/12/01 08:16:12;;;;;;;93.20;35.13;;;5.70;99.90;;;;;;5011197;28;20048;-52
2022/12/01 08:18:39;;;;;;;92.70;33.55;;;5.70;99.90;;;;;;5011122;28;20488;-54
2022/12/01 08:21:06;;;;;;;91.87;33.33;;;5.70;99.90;;;;;;5011333;28;20072;-52
2022/12/01 08:23:32;;;;;;;100.17;35.13;;;5.70;99.90;;;;;;5011028;28;20113;-51
2022/12/01 08:26:02;;;;;;;92.50;34.10;;;5.70;99.90;;;;;;5011271;28;20147;-52
2022/12/01 08:28:28;;;;;;;90.67;32.60;;;5.70;99.90;;;;;;5010926;28;20109;-51
2022/12/01 08:30:54;;;;;;;96.17;32.47;;;5.70;99.90;;;;;;5010668;28;20491;-52
2022/12/01 08:33:20;;;;;;;89.00;31.13;;;5.70;99.90;;;;;;5011249;28;20029;-50
2022/12/01 08:35:46;;;;;;;91.13;30.13;;;5.70;99.90;;;;;;5011103;28;20045;-51
2022/12/01 08:38:11;;;;;;;87.20;29.97;;;5.80;99.90;;;;;;5010770;28;20525;-50
2022/12/01 08:40:37;;;;;;;90.60;31.03;;;5.80;99.90;;;;;;5010620;28;20030;-49
2022/12/01 08:43:04;;;;;;;87.30;30.53;;;5.80;99.90;;;;;;5010871;28;20034;-51
2022/12/01 08:45:30;;;;;;;82.63;28.33;;;5.80;99.90;;;;;;5010686;28;20069;-51
2022/12/01 08:47:57;;;;;;;93.13;32.43;;;5.80;99.90;;;;;;5011149;28;20080;-52
2022/12/01 08:50:26;;;;;;;94.77;32.50;;;5.80;99.90;;;;;;5010605;28;20022;-51
2022/12/01 08:52:52;;;;;;;85.05;31.55;;;5.80;99.90;;;;;;5010837;28;20026;-51
2022/12/01 08:55:19;;;;;;;95.77;32.50;;;5.80;99.90;;;;;;5010815;28;20084;-48
2022/12/01 08:57:45;;;;;;;87.67;32.97;;;5.80;99.90;;;;;;5014505;28;20037;-51
2022/12/01 09:00:11;;;;;;;96.97;34.27;;;5.70;99.90;;;;;;5014325;28;20033;-53
2022/12/01 09:02:37;;;;;;;91.23;31.77;;;5.70;99.90;;;;;;5014841;28;20061;-52
2022/12/01 09:05:18;;;;;;;84.60;30.87;;;5.70;99.90;;;;;;5014745;28;20474;-50
2022/12/01 09:08:29;;;;;;;87.83;31.87;;;5.70;99.90;;;;;;5014571;28;20506;-52
2022/12/01 09:10:29;;;;;;;82.33;31.20;;;5.70;99.90;;;;;;5014033;28;20036;-54
2022/12/01 09:12:56;;;;;;;89.43;32.57;;;5.60;99.90;;;;;;5014741;28;20394;-53
2022/12/01 09:15:22;;;;;;;83.70;31.77;;;5.60;99.90;;;;;;5014475;28;20037;-51
2022/12/01 09:17:47;;;;;;;94.43;33.00;;;5.60;99.90;;;;;;5014586;28;20030;-48
2022/12/01 09:20:13;;;;;;;92.73;33.07;;;5.60;99.90;;;;;;5014107;28;20026;-51
2022/12/01 09:22:38;;;;;;;90.47;32.27;;;5.60;99.90;;;;;;5014380;28;20033;-51
2022/12/01 09:25:07;;;;;;;91.30;34.43;;;5.60;99.90;;;;;;5014254;28;20030;-55
2022/12/01 09:27:32;;;;;;;86.27;33.70;;;5.60;99.90;;;;;;5014152;28;20540;-53
2022/12/01 09:29:58;;;;;;;94.63;33.77;;;5.70;99.90;;;;;;5014112;28;20109;-52
2022/12/01 09:32:24;;;;;;;89.43;33.67;;;5.70;99.90;;;;;;5014382;28;20455;-49
2022/12/01 09:34:49;;;;;;;89.97;32.43;;;5.70;99.90;;;;;;5014058;28;20141;-51
2022/12/01 09:37:15;;;;;;;82.07;33.03;;;5.70;99.90;;;;;;5014024;28;20029;-49
2022/12/01 09:39:41;;;;;;;81.00;30.90;;;5.70;99.90;;;;;;5013767;28;20455;-52
2022/12/01 09:42:17;;;;;;;77.83;29.73;;;5.70;99.90;;;;;;5014205;28;20038;-52
2022/12/01 09:44:53;;;;;;;72.43;27.00;;;5.70;99.90;;;;;;5014254;28;20502;-52
2022/12/01 09:47:25;;;;;;;67.57;27.60;;;5.80;99.90;;;;;;5013861;28;20463;-50
2022/12/01 09:50:10;;;;;;;69.47;27.70;;;5.80;99.90;;;;;;5013721;28;20037;-51
2022/12/01 09:52:45;;;;;;;64.80;26.73;;;5.80;99.90;;;;;;5014411;28;20030;-50
2022/12/01 09:55:16;;;;;;;64.07;25.63;;;5.90;99.90;;;;;;5014258;28;20120;-51
2022/12/01 09:57:45;;;;;;;63.70;26.60;;;5.90;99.90;;;;;;5014324;28;20152;-51
2022/12/01 10:00:14;;;;;;;61.70;25.50;;;5.90;99.90;;;;;;5013829;28;20056;-48
2022/12/01 10:02:55;;;;;;;64.50;25.88;;;5.90;99.90;;;;;;5013847;28;20034;-51
2022/12/01 10:05:24;;;;;;;55.20;25.07;;;5.80;99.90;;;;;;5013910;28;20042;-51
2022/12/01 10:07:55;;;;;;;60.42;25.27;;;5.90;99.90;;;;;;5013540;28;20025;-49
2022/12/01 10:10:31;;;;;;;54.90;25.57;;;5.90;99.90;;;;;;5013436;28;20041;-52
2022/12/01 10:12:57;;;;;;;57.53;25.50;;;6.00;99.90;;;;;;5013708;28;20026;-50
2022/12/01 10:15:49;;;;;;;60.93;25.30;;;6.00;99.90;;;;;;5013945;28;20354;-52
2022/12/01 10:18:24;;;;;;;57.77;26.10;;;5.90;99.90;;;;;;5013499;28;20065;-53
2022/12/01 10:21:24;;;;;;;53.83;23.47;;;6.00;99.90;;;;;;5013377;28;20231;-51
2022/12/01 10:24:01;;;;;;;57.50;24.23;;;5.90;99.90;;;;;;5013618;28;20561;-49
2022/12/01 10:26:49;;;;;;;55.33;23.97;;;5.90;99.90;;;;;;5013326;28;20067;-52
2022/12/01 10:29:51;;;;;;;53.63;25.53;;;5.90;99.90;;;;;;5013093;28;20172;-53
2022/12/01 10:32:20;;;;;;;49.97;22.47;;;5.90;99.90;;;;;;5013561;28;20421;-51
2022/12/01 10:34:47;;;;;;;50.30;23.05;;;5.90;99.90;;;;;;5013340;28;20049;-52
2022/12/01 10:37:26;;;;;;;54.37;23.03;;;6.00;99.90;;;;;;5013077;28;20052;-49
2022/12/01 10:39:54;;;;;;;47.10;20.65;;;6.00;99.90;;;;;;5012942;28;20026;-49
2022/12/01 10:42:33;;;;;;;49.50;22.27;;;6.00;99.90;;;;;;5013509;28;20033;-50
2022/12/01 10:45:02;;;;;;;50.90;21.55;;;6.10;99.90;;;;;;5013030;28;20430;-48
2022/12/01 10:47:28;;;;;;;;;;;6.00;99.90;;;;;;5013449;28;20445;-50
2022/12/01 10:49:55;;;;;;;54.63;22.57;;;6.00;99.90;;;;;;5012810;28;19909;-47
2022/12/01 10:52:40;;;;;;;59.73;25.27;;;5.90;99.90;;;;;;5013007;28;20486;-48
2022/12/01 10:55:28;;;;;;;59.97;27.40;;;5.90;99.90;;;;;;5011977;28;20048;-54
2022/12/01 10:57:56;;;;;;;69.00;29.90;;;5.90;99.90;;;;;;5012659;28;20026;-52
2022/12/01 11:00:36;;;;;;;63.83;27.60;;;5.80;99.90;;;;;;5012561;28;20456;-51
2022/12/01 11:03:02;;;;;;;72.35;29.30;;;5.80;99.90;;;;;;5012744;28;20109;-50
2022/12/01 11:05:33;;;;;;;66.50;28.07;;;5.90;99.90;;;;;;5012756;28;20108;-51
2022/12/01 11:07:59;;;;;;;67.50;29.07;;;5.90;99.90;;;;;;5012526;28;20070;-47
2022/12/01 11:10:36;;;;;;;66.77;27.17;;;5.90;99.90;;;;;;5012333;28;20594;-48
2022/12/01 11:13:06;;;;;;;68.53;28.57;;;5.90;99.90;;;;;;5012551;28;20491;-47
2022/12/01 11:15:37;;;;;;;62.43;26.53;;;5.80;99.90;;;;;;5012414;28;20034;-48
2022/12/01 11:18:19;;;;;;;66.20;27.77;;;5.80;99.90;;;;;;5012229;28;20030;-49
2022/12/01 11:20:45;;;;;;;71.07;28.73;;;5.80;99.90;;;;;;5012312;28;20029;-49
2022/12/01 11:23:17;;;;;;;73.13;29.57;;;5.80;99.90;;;;;;5012415;28;20076;-52
2022/12/01 11:26:13;;;;;;;71.90;29.73;;;5.70;99.90;;;;;;5012325;28;20518;-48
2022/12/01 11:29:03;;;;;;;67.30;29.40;;;5.70;99.90;;;;;;5012006;28;20029;-48
2022/12/01 11:31:44;;;;;;;65.70;28.93;;;5.70;99.90;;;;;;5012283;28;20022;-50
2022/12/01 11:34:37;;;;;;;66.90;29.23;;;5.60;99.90;;;;;;5012165;28;20090;-52
2022/12/01 11:37:08;;;;;;;63.47;28.80;;;5.70;99.90;;;;;;5012140;28;20025;-47
2022/12/01 11:39:39;;;;;;;58.80;27.53;;;5.80;99.90;;;;;;5011937;28;20626;-50
2022/12/01 11:42:17;;;;;;;61.10;28.23;;;5.80;99.90;;;;;;5011970;28;20109;-51
2022/12/01 11:44:53;;;;;;;57.70;26.90;;;5.80;99.90;;;;;;5011827;28;20057;-50
2022/12/01 11:47:22;;;;;;;56.33;25.27;;;5.90;99.90;;;;;;5011772;28;20033;-49
2022/12/01 11:49:57;;;;;;;54.00;23.60;;;5.80;99.90;;;;;;5011724;28;20030;-48
2022/12/01 11:52:32;;;;;;;53.63;23.70;;;5.90;99.90;;;;;;5012086;28;20398;-48
2022/12/01 11:55:10;;;;;;;58.97;25.73;;;5.90;99.90;;;;;;5011857;28;20037;-52
2022/12/01 11:57:39;;;;;;;54.83;24.63;;;5.90;99.90;;;;;;5011637;28;20030;-50
2022/12/01 12:00:15;;;;;;;;;;;5.90;99.90;;;;;;5012289;28;20482;-48
2022/12/01 12:03:02;;;;;;;55.50;24.60;;;6.00;99.90;;;;;;5012102;28;19909;-49
2022/12/01 12:05:49;;;;;;;56.23;27.13;;;6.10;99.90;;;;;;5011573;28;20038;-49
2022/12/01 12:08:45;;;;;;;56.53;27.23;;;6.10;99.90;;;;;;5011562;28;20037;-53
2022/12/01 12:11:18;;;;;;;58.17;27.87;;;6.20;99.90;;;;;;5025097;23;20544;-57
2022/12/01 12:14:02;;;;;;;57.90;28.13;;;6.10;99.90;;;;;;5011654;28;20040;-57
2022/12/01 12:17:04;;;;;;;61.07;28.07;;;6.20;99.90;;;;;;5011644;28;20021;-57
2022/12/01 12:19:46;;;;;;;56.43;28.33;;;6.20;99.90;;;;;;5011150;28;20065;-57
2022/12/01 12:22:30;;;;;;;55.30;27.00;;;6.30;99.90;;;;;;5011347;28;20057;-57
2022/12/01 12:25:33;;;;;;;60.07;28.60;;;6.30;99.90;;;;;;5011421;28;20034;-57
2022/12/01 12:28:07;;;;;;;57.83;27.77;;;6.40;99.90;;;;;;5011211;28;20039;-57
2022/12/01 12:31:04;;;;;;;61.97;30.53;;;6.30;99.90;;;;;;5009930;28;20068;-57
2022/12/01 12:33:54;;;;;;;66.40;30.93;;;6.30;99.90;;;;;;5010178;28;20501;-57
2022/12/01 12:36:51;;;;;;;69.67;32.20;;;6.20;99.90;;;;;;5011024;28;20033;-58
2022/12/01 12:39:35;;;;;;;64.03;30.50;;;6.20;99.90;;;;;;5010854;28;20060;-57
2022/12/01 12:42:11;;;;;;;67.73;31.37;;;6.20;99.90;;;;;;5011415;28;20029;-57
2022/12/01 12:44:58;;;;;;;65.00;32.30;;;6.20;99.90;;;;;;5010877;28;20026;-57
2022/12/01 12:47:57;;;;;;;65.60;31.70;;;6.20;99.90;;;;;;5010666;28;20046;-57
2022/12/01 12:50:41;;;;;;;;;;;6.20;99.90;;;;;;5011081;28;20072;-57
2022/12/01 12:53:19;;;;;;;66.23;29.90;;;6.20;99.90;;;;;;5010766;28;19992;-57
2022/12/01 12:55:49;;;;;;;66.23;31.40;;;6.20;99.90;;;;;;5010780;28;20057;-56
2022/12/01 12:58:20;;;;;;;65.83;31.57;;;6.20;99.90;;;;;;5010691;28;20402;-57
2022/12/01 13:01:18;;;;;;;69.67;33.77;;;6.20;99.90;;;;;;5010556;28;20076;-57
2022/12/01 13:04:09;;;;;;;68.87;31.53;;;6.20;99.90;;;;;;5010441;28;20053;-57